createdAt,value
2018-11-04T00:01:36.541Z,87.79
2018-11-04T00:04:03.873Z,87.72
2018-11-04T00:06:31.171Z,87.60
2018-11-04T00:08:58.541Z,87.82
2018-11-04T00:11:25.804Z,87.24
2018-11-04T00:13:53.076Z,87.33
2018-11-04T00:16:20.344Z,87.63
2018-11-04T00:18:47.701Z,87.53
2018-11-04T00:21:14.904Z,87.43
2018-11-04T00:23:42.191Z,87.77
2018-11-04T00:26:09.498Z,87.38
2018-11-04T00:28:36.834Z,87.62
2018-11-04T00:31:04.215Z,87.61
2018-11-04T00:33:31.478Z,87.64
2018-11-04T00:35:58.715Z,87.80
2018-11-04T00:38:25.975Z,87.95
2018-11-04T00:40:53.254Z,87.73
2018-11-04T00:43:20.587Z,87.72
2018-11-04T00:45:47.863Z,88.02
2018-11-04T00:48:15.186Z,88.16
2018-11-04T00:50:42.460Z,87.89
2018-11-04T00:53:09.776Z,87.78
2018-11-04T00:55:41.836Z,87.76
2018-11-04T00:58:09.095Z,87.87
2018-11-04T01:00:37.049Z,87.91
2018-11-04T01:03:05.420Z,87.93
2018-11-04T01:05:32.649Z,87.85
2018-11-04T01:07:59.998Z,88.12
2018-11-04T01:10:27.251Z,88.37
2018-11-04T01:12:54.522Z,88.03
2018-11-04T01:15:21.862Z,88.44
2018-11-04T01:17:51.287Z,88.12
2018-11-04T01:23:08.509Z,88.53
2018-11-04T01:25:35.764Z,88.21
2018-11-04T01:28:03.097Z,88.34
2018-11-04T01:30:30.475Z,88.37
2018-11-04T01:32:57.721Z,89.06
2018-11-04T01:35:25.640Z,89.12
2018-11-04T01:37:52.851Z,88.93
2018-11-04T01:40:20.172Z,89.46
2018-11-04T01:42:47.416Z,89.17
2018-11-04T01:45:14.722Z,89.43
2018-11-04T01:47:42.005Z,89.40
2018-11-04T01:50:11.230Z,89.07
2018-11-04T01:52:38.567Z,89.09
2018-11-04T01:55:06.164Z,89.59
2018-11-04T01:57:33.458Z,90.11
2018-11-04T02:00:00.744Z,89.79
2018-11-04T02:02:28.014Z,89.77
2018-11-04T02:04:55.340Z,90.01
2018-11-04T02:07:23.312Z,89.62
2018-11-04T02:09:50.652Z,89.89
2018-11-04T02:12:18.029Z,90.02
2018-11-04T02:14:45.351Z,89.47
2018-11-04T02:17:12.607Z,89.82
2018-11-04T02:19:39.880Z,89.37
2018-11-04T02:22:07.177Z,89.59
2018-11-04T02:24:34.450Z,89.44
2018-11-04T02:27:01.712Z,89.28
2018-11-04T02:29:28.967Z,89.86
2018-11-04T02:31:56.279Z,90.09
2018-11-04T02:34:23.594Z,89.67
2018-11-04T02:36:51.527Z,89.75
2018-11-04T02:39:18.946Z,90.17
2018-11-04T02:41:46.223Z,89.84
2018-11-04T02:44:13.603Z,89.76
2018-11-04T02:46:40.908Z,90.14
2018-11-04T02:49:08.148Z,90.18
2018-11-04T02:51:36.042Z,90.24
2018-11-04T02:54:03.560Z,90.36
2018-11-04T02:56:30.917Z,90.28
2018-11-04T02:58:58.217Z,90.40
2018-11-04T03:01:25.640Z,90.29
2018-11-04T03:03:52.876Z,90.04
2018-11-04T03:06:20.804Z,90.02
2018-11-04T03:08:48.058Z,90.05
2018-11-04T03:11:15.468Z,90.43
2018-11-04T03:13:43.118Z,90.41
2018-11-04T03:16:10.449Z,90.00
2018-11-04T03:18:37.697Z,90.11
2018-11-04T03:21:05.816Z,90.38
2018-11-04T03:23:33.081Z,90.11
2018-11-04T03:26:00.351Z,90.46
2018-11-04T03:28:27.681Z,90.47
2018-11-04T03:30:54.982Z,90.48
2018-11-04T03:33:22.987Z,90.28
2018-11-04T03:35:50.336Z,90.10
2018-11-04T03:38:17.551Z,90.03
2018-11-04T03:40:44.855Z,90.62
2018-11-04T03:43:12.801Z,90.36
2018-11-04T03:45:40.044Z,90.62
2018-11-04T03:48:07.937Z,90.64
2018-11-04T03:50:35.184Z,90.38
2018-11-04T03:53:05.052Z,90.68
2018-11-04T03:55:32.694Z,90.40
2018-11-04T03:58:00.034Z,90.88
2018-11-04T04:00:27.426Z,90.37
2018-11-04T04:02:54.686Z,90.37
2018-11-04T04:05:22.015Z,90.76
2018-11-04T04:07:49.359Z,90.51
2018-11-04T04:10:16.609Z,90.79
2018-11-04T04:12:43.924Z,90.62
2018-11-04T04:15:11.516Z,91.15
2018-11-04T04:17:38.964Z,91.29
2018-11-04T04:20:06.577Z,90.90
2018-11-04T04:22:35.448Z,90.61
2018-11-04T04:25:03.805Z,91.10
2018-11-04T04:27:32.514Z,90.82
2018-11-04T04:29:59.865Z,91.26
2018-11-04T04:32:27.090Z,91.37
2018-11-04T04:34:54.432Z,91.40
2018-11-04T04:37:21.690Z,91.44
2018-11-04T04:39:48.888Z,91.19
2018-11-04T04:42:16.186Z,91.12
2018-11-04T04:44:43.441Z,91.10
2018-11-04T04:47:10.768Z,91.19
2018-11-04T04:49:38.071Z,91.57
2018-11-04T04:52:05.473Z,91.34
2018-11-04T04:54:32.735Z,91.47
2018-11-04T04:57:00.035Z,91.90
2018-11-04T04:59:27.331Z,91.92
2018-11-04T05:01:54.780Z,91.62
2018-11-04T05:04:22.015Z,92.28
2018-11-04T05:06:49.297Z,92.26
2018-11-04T05:09:16.569Z,92.43
2018-11-04T05:11:44.130Z,91.98
2018-11-04T05:14:11.402Z,92.39
2018-11-04T05:16:39.137Z,92.22
2018-11-04T05:19:06.576Z,92.31
2018-11-04T05:21:33.864Z,92.24
2018-11-04T05:24:01.140Z,92.30
2018-11-04T05:26:28.572Z,92.53
2018-11-04T05:28:55.872Z,92.48
2018-11-04T05:31:23.123Z,92.88
2018-11-04T05:33:50.425Z,92.99
2018-11-04T05:36:18.293Z,92.64
2018-11-04T05:38:45.560Z,93.02
2018-11-04T05:41:12.920Z,92.83
2018-11-04T05:43:40.171Z,93.18
2018-11-04T05:46:07.511Z,92.84
2018-11-04T05:48:34.815Z,92.79
2018-11-04T05:51:02.111Z,93.44
2018-11-04T05:53:29.494Z,93.57
2018-11-04T05:55:56.885Z,93.62
2018-11-04T05:58:24.803Z,93.66
2018-11-04T06:00:52.230Z,93.79
2018-11-04T06:03:20.666Z,93.28
2018-11-04T06:05:48.025Z,93.72
2018-11-04T06:08:15.388Z,93.44
2018-11-04T06:10:42.827Z,93.71
2018-11-04T06:13:10.796Z,94.27
2018-11-04T06:15:39.968Z,94.18
2018-11-04T06:18:07.411Z,93.75
2018-11-04T06:20:34.840Z,94.27
2018-11-04T06:25:36.182Z,94.41
2018-11-04T06:28:03.697Z,94.03
2018-11-04T06:30:31.251Z,94.49
2018-11-04T06:33:04.085Z,94.53
2018-11-04T06:35:31.541Z,94.31
2018-11-04T06:37:59.028Z,94.76
2018-11-04T06:40:26.370Z,94.89
2018-11-04T06:42:53.745Z,94.56
2018-11-04T06:45:21.247Z,94.54
2018-11-04T06:47:48.662Z,94.50
2018-11-04T06:50:17.481Z,94.55
2018-11-04T06:52:45.629Z,95.04
2018-11-04T06:55:14.609Z,95.06
2018-11-04T06:57:42.674Z,94.65
2018-11-04T07:00:11.684Z,95.00
2018-11-04T07:02:40.378Z,94.96
2018-11-04T07:05:08.020Z,94.74
2018-11-04T07:07:36.181Z,95.22
2018-11-04T07:10:04.943Z,95.30
2018-11-04T07:12:32.523Z,95.05
2018-11-04T07:15:00.915Z,95.14
2018-11-04T07:17:28.396Z,95.15
2018-11-04T07:19:55.920Z,95.20
2018-11-04T07:22:23.400Z,94.78
2018-11-04T07:24:50.848Z,94.81
2018-11-04T07:27:20.130Z,95.12
2018-11-04T07:29:48.319Z,95.13
2018-11-04T07:32:16.353Z,94.70
2018-11-04T07:34:43.772Z,94.86
2018-11-04T07:37:11.330Z,94.86
2018-11-04T07:39:39.451Z,95.12
2018-11-04T07:42:07.008Z,95.01
2018-11-04T07:44:35.200Z,95.08
2018-11-04T07:47:03.678Z,94.59
2018-11-04T07:49:31.067Z,94.99
2018-11-04T07:51:59.156Z,94.59
2018-11-04T07:54:27.209Z,94.63
2018-11-04T07:56:55.559Z,94.67
2018-11-04T07:59:23.174Z,94.83
2018-11-04T08:01:52.466Z,94.79
2018-11-04T08:04:21.260Z,95.23
2018-11-04T08:06:49.360Z,94.92
2018-11-04T08:09:17.060Z,94.79
2018-11-04T08:11:44.958Z,94.83
2018-11-04T08:14:12.707Z,94.93
2018-11-04T08:16:40.222Z,95.14
2018-11-04T08:19:08.447Z,95.10
2018-11-04T08:21:36.075Z,95.05
2018-11-04T08:24:03.995Z,94.89
2018-11-04T08:26:32.995Z,94.86
2018-11-04T08:29:01.471Z,94.58
2018-11-04T08:31:29.228Z,95.04
2018-11-04T08:33:56.754Z,94.95
2018-11-04T08:36:24.272Z,94.60
2018-11-04T08:38:53.162Z,94.38
2018-11-04T08:41:21.133Z,94.81
2018-11-04T08:43:49.144Z,94.07
2018-11-04T08:46:18.276Z,94.00
2018-11-04T08:48:46.488Z,94.39
2018-11-04T08:51:14.007Z,94.40
2018-11-04T08:53:42.308Z,94.33
2018-11-04T08:56:21.734Z,94.15
2018-11-04T08:58:52.791Z,93.70
2018-11-04T09:01:20.672Z,94.15
2018-11-04T09:03:48.215Z,94.16
2018-11-04T09:06:16.195Z,94.48
2018-11-04T09:08:55.236Z,93.79
2018-11-04T09:11:29.090Z,94.19
2018-11-04T09:13:57.408Z,93.82
2018-11-04T09:16:24.798Z,93.09
2018-11-04T09:18:52.393Z,93.16
2018-11-04T09:21:20.155Z,93.14
2018-11-04T09:23:47.641Z,92.78
2018-11-04T09:26:15.796Z,92.95
2018-11-04T09:28:43.129Z,92.83
2018-11-04T09:31:10.943Z,92.62
2018-11-04T09:33:40.853Z,92.59
2018-11-04T09:36:08.336Z,92.43
2018-11-04T09:38:37.180Z,92.10
2018-11-04T09:41:04.699Z,92.38
2018-11-04T09:43:32.566Z,92.63
2018-11-04T09:46:00.060Z,91.87
2018-11-04T09:48:27.433Z,91.93
2018-11-04T09:50:55.287Z,91.91
2018-11-04T09:53:22.756Z,91.33
2018-11-04T09:55:50.186Z,91.73
2018-11-04T09:58:17.636Z,92.00
2018-11-04T10:00:45.132Z,92.04
2018-11-04T10:03:12.614Z,91.81
2018-11-04T10:05:40.077Z,91.66
2018-11-04T10:08:07.609Z,92.62
2018-11-04T10:10:35.069Z,92.54
2018-11-04T10:13:02.556Z,92.36
2018-11-04T10:15:30.099Z,92.00
2018-11-04T10:17:58.129Z,91.84
2018-11-04T10:20:25.860Z,92.43
2018-11-04T10:22:53.134Z,92.06
2018-11-04T10:25:39.153Z,92.01
2018-11-04T10:28:06.625Z,92.11
2018-11-04T10:30:34.128Z,92.02
2018-11-04T10:33:01.633Z,91.30
2018-11-04T10:35:29.157Z,91.49
2018-11-04T10:37:56.495Z,91.71
2018-11-04T10:40:23.981Z,91.61
2018-11-04T10:42:51.385Z,91.94
2018-11-04T10:45:18.920Z,92.12
2018-11-04T10:47:46.408Z,91.48
2018-11-04T10:50:13.975Z,91.40
2018-11-04T10:52:41.500Z,91.76
2018-11-04T10:55:10.030Z,92.19
2018-11-04T10:57:37.635Z,92.46
2018-11-04T11:00:11.942Z,91.75
2018-11-04T11:02:39.453Z,91.91
2018-11-04T11:05:06.844Z,92.03
2018-11-04T11:07:34.290Z,92.16
2018-11-04T11:10:01.702Z,92.38
2018-11-04T11:12:29.153Z,92.37
2018-11-04T11:14:57.351Z,92.87
2018-11-04T11:17:25.733Z,92.90
2018-11-04T11:19:54.170Z,93.43
2018-11-04T11:22:21.937Z,92.96
2018-11-04T11:25:08.754Z,93.04
2018-11-04T11:27:36.620Z,93.26
2018-11-04T11:30:04.261Z,93.34
2018-11-04T11:32:31.855Z,93.68
2018-11-04T11:34:59.398Z,93.77
2018-11-04T11:37:26.931Z,93.46
2018-11-04T11:39:54.337Z,93.51
2018-11-04T11:42:21.905Z,93.74
2018-11-04T11:44:49.388Z,93.79
2018-11-04T11:47:16.797Z,93.08
2018-11-04T11:49:44.150Z,92.87
2018-11-04T11:52:11.684Z,92.85
2018-11-04T11:54:39.666Z,92.76
2018-11-04T11:57:07.043Z,92.89
2018-11-04T11:59:34.642Z,92.85
2018-11-04T12:02:02.258Z,92.95
2018-11-04T12:04:29.689Z,92.34
2018-11-04T12:06:57.192Z,92.55
2018-11-04T12:09:24.607Z,92.61
2018-11-04T12:11:53.506Z,92.49
2018-11-04T12:14:20.949Z,92.04
2018-11-04T12:16:48.354Z,92.32
2018-11-04T12:19:15.772Z,92.98
2018-11-04T12:21:43.272Z,92.98
2018-11-04T12:24:10.728Z,92.69
2018-11-04T12:26:39.028Z,93.16
2018-11-04T12:29:07.846Z,92.70
2018-11-04T12:31:35.563Z,93.01
2018-11-04T12:34:03.327Z,93.11
2018-11-04T12:36:30.995Z,92.91
2018-11-04T12:38:58.845Z,92.91
2018-11-04T12:41:26.468Z,93.05
2018-11-04T12:43:55.297Z,92.87
2018-11-04T12:46:23.567Z,92.66
2018-11-04T12:48:51.371Z,92.94
2018-11-04T12:51:19.040Z,92.45
2018-11-04T12:53:47.174Z,92.91
2018-11-04T12:56:17.540Z,92.62
2018-11-04T12:58:47.681Z,92.80
2018-11-04T13:01:17.221Z,92.62
2018-11-04T13:03:46.161Z,93.11
2018-11-04T13:06:14.629Z,92.53
2018-11-04T13:08:43.375Z,92.79
2018-11-04T13:11:11.824Z,92.70
2018-11-04T13:13:40.107Z,92.73
2018-11-04T13:16:12.616Z,92.82
2018-11-04T13:18:40.977Z,92.79
2018-11-04T13:21:09.103Z,92.34
2018-11-04T13:23:36.767Z,92.37
2018-11-04T13:26:04.879Z,92.65
2018-11-04T13:28:32.649Z,92.31
2018-11-04T13:31:01.125Z,92.29
2018-11-04T13:33:29.277Z,92.29
2018-11-04T13:35:57.335Z,92.51
2018-11-04T13:38:25.681Z,92.05
2018-11-04T13:40:53.859Z,92.53
2018-11-04T13:43:21.669Z,92.10
2018-11-04T13:45:49.564Z,92.11
2018-11-04T13:48:17.530Z,92.46
2018-11-04T13:50:45.283Z,92.05
2018-11-04T13:53:12.858Z,92.19
2018-11-04T13:55:40.382Z,92.31
2018-11-04T13:58:07.804Z,92.84
2018-11-04T14:00:35.233Z,92.64
2018-11-04T14:03:02.880Z,92.73
2018-11-04T14:05:30.341Z,92.36
2018-11-04T14:07:57.743Z,92.49
2018-11-04T14:10:25.251Z,92.46
2018-11-04T14:12:52.890Z,92.72
2018-11-04T14:15:20.314Z,92.76
2018-11-04T14:17:47.784Z,92.67
2018-11-04T14:20:15.221Z,92.83
2018-11-04T14:22:42.701Z,92.53
2018-11-04T14:25:11.217Z,92.69
2018-11-04T14:27:39.038Z,92.51
2018-11-04T14:30:09.358Z,92.86
2018-11-04T14:32:37.065Z,92.37
2018-11-04T14:35:05.933Z,92.46
2018-11-04T14:37:33.470Z,92.65
2018-11-04T14:40:01.012Z,92.40
2018-11-04T14:42:28.553Z,92.51
2018-11-04T14:44:56.128Z,92.88
2018-11-04T14:47:23.682Z,92.58
2018-11-04T14:49:51.047Z,92.55
2018-11-04T14:52:18.564Z,92.58
2018-11-04T14:54:46.235Z,92.85
2018-11-04T14:57:13.977Z,92.96
2018-11-04T14:59:42.121Z,92.60
2018-11-04T15:02:09.591Z,92.75
2018-11-04T15:04:37.447Z,92.64
2018-11-04T15:07:05.419Z,93.03
2018-11-04T15:09:32.927Z,93.21
2018-11-04T15:12:00.394Z,92.90
2018-11-04T15:14:27.873Z,93.35
2018-11-04T15:16:55.335Z,92.90
2018-11-04T15:19:23.801Z,93.23
2018-11-04T15:21:52.730Z,93.20
2018-11-04T15:24:20.219Z,93.03
2018-11-04T15:26:48.006Z,93.14
2018-11-04T15:29:15.612Z,93.33
2018-11-04T15:31:43.175Z,93.35
2018-11-04T15:34:10.705Z,93.32
2018-11-04T15:36:38.304Z,93.76
2018-11-04T15:39:07.932Z,93.40
2018-11-04T15:41:35.480Z,93.52
2018-11-04T15:44:03.005Z,93.60
2018-11-04T15:46:30.309Z,93.49
2018-11-04T15:48:57.802Z,93.88
2018-11-04T15:51:25.068Z,93.92
2018-11-04T15:53:52.392Z,93.65
2018-11-04T15:56:19.739Z,93.74
2018-11-04T15:58:47.068Z,93.78
2018-11-04T16:01:14.342Z,94.22
2018-11-04T16:03:41.613Z,93.59
2018-11-04T16:06:08.930Z,94.12
2018-11-04T16:08:36.174Z,94.30
2018-11-04T16:11:03.512Z,94.21
2018-11-04T16:13:30.875Z,94.49
2018-11-04T16:15:58.219Z,94.26
2018-11-04T16:18:25.494Z,94.65
2018-11-04T16:20:52.773Z,94.72
2018-11-04T16:23:20.030Z,94.32
2018-11-04T16:25:47.354Z,94.58
2018-11-04T16:28:14.680Z,94.27
2018-11-04T16:30:41.996Z,94.65
2018-11-04T16:33:09.343Z,94.23
2018-11-04T16:35:36.658Z,94.77
2018-11-04T16:38:04.039Z,94.69
2018-11-04T16:40:31.355Z,94.34
2018-11-04T16:42:58.750Z,94.29
2018-11-04T16:45:26.014Z,94.89
2018-11-04T16:47:53.267Z,94.97
2018-11-04T16:50:20.607Z,94.68
2018-11-04T16:52:47.845Z,94.99
2018-11-04T16:55:15.155Z,95.03
2018-11-04T16:57:42.948Z,95.06
2018-11-04T17:00:10.995Z,94.72
2018-11-04T17:02:38.598Z,94.86
2018-11-04T17:10:51.300Z,92.86
2018-11-04T17:13:18.675Z,92.49
2018-11-04T17:15:46.754Z,92.73
2018-11-04T17:18:14.014Z,92.67
2018-11-04T17:20:41.427Z,92.62
2018-11-04T17:23:08.740Z,92.83
2018-11-04T17:25:36.039Z,92.60
2018-11-04T17:28:04.204Z,92.44
2018-11-04T17:30:31.563Z,92.03
2018-11-04T17:32:59.771Z,91.36
2018-11-04T17:35:27.170Z,91.02
2018-11-04T17:37:55.756Z,91.15
2018-11-04T17:40:23.380Z,91.54
2018-11-04T17:42:50.767Z,91.85
2018-11-04T17:45:18.180Z,92.18
2018-11-04T17:47:46.280Z,92.40
2018-11-04T17:50:16.054Z,92.23
2018-11-04T17:52:43.904Z,92.12
2018-11-04T17:55:11.307Z,92.54
2018-11-04T17:57:39.165Z,92.94
2018-11-04T18:00:07.863Z,93.67
2018-11-04T18:02:35.117Z,92.91
2018-11-04T18:05:02.467Z,92.88
2018-11-04T18:07:29.928Z,92.63
2018-11-04T18:09:57.300Z,92.87
2018-11-04T18:12:24.848Z,92.53
2018-11-04T18:14:52.271Z,92.39
2018-11-04T18:17:19.826Z,92.76
2018-11-04T18:19:47.300Z,92.52
2018-11-04T18:22:14.751Z,92.76
2018-11-04T18:24:46.680Z,92.43
2018-11-04T18:27:27.115Z,92.84
2018-11-04T18:29:54.503Z,92.74
2018-11-04T18:32:23.183Z,92.85
2018-11-04T18:34:50.649Z,92.57
2018-11-04T18:37:17.960Z,92.87
2018-11-04T18:39:45.272Z,92.96
2018-11-04T18:42:13.391Z,92.90
2018-11-04T18:44:40.970Z,92.92
2018-11-04T18:47:08.243Z,92.93
2018-11-04T18:49:35.526Z,92.95
2018-11-04T18:52:03.241Z,92.97
2018-11-04T18:54:30.580Z,93.03
2018-11-04T18:56:58.019Z,92.36
2018-11-04T18:59:25.364Z,92.56
2018-11-04T19:01:53.943Z,92.07
2018-11-04T19:04:21.863Z,92.58
2018-11-04T19:06:49.425Z,92.63
2018-11-04T19:09:17.359Z,92.25
2018-11-04T19:11:44.818Z,92.72
2018-11-04T19:14:12.221Z,92.67
2018-11-04T19:16:51.942Z,93.15
2018-11-04T19:19:19.586Z,93.37
2018-11-04T19:21:48.746Z,93.14
2018-11-04T19:24:16.502Z,93.50
2018-11-04T19:26:44.206Z,93.58
2018-11-04T19:29:13.628Z,93.44
2018-11-04T19:31:42.162Z,93.35
2018-11-04T19:34:10.961Z,93.24
2018-11-04T19:36:38.846Z,93.74
2018-11-04T19:39:08.517Z,93.36
2018-11-04T19:41:36.426Z,93.84
2018-11-04T19:44:09.374Z,93.47
2018-11-04T19:46:38.809Z,93.43
2018-11-04T19:49:10.992Z,93.83
2018-11-04T19:51:45.318Z,93.92
2018-11-04T19:54:14.258Z,93.73
2018-11-04T19:56:43.132Z,93.19
2018-11-04T19:59:12.112Z,93.13
2018-11-04T20:01:41.237Z,93.28
2018-11-04T20:04:10.807Z,93.05
2018-11-04T20:06:39.104Z,93.67
2018-11-04T20:09:14.232Z,93.76
2018-11-04T20:11:46.013Z,93.48
2018-11-04T20:14:22.880Z,93.80
2018-11-04T20:16:51.835Z,93.84
2018-11-04T20:19:26.159Z,93.79
2018-11-04T20:21:55.316Z,93.25
2018-11-04T20:24:29.495Z,93.07
2018-11-04T20:26:57.655Z,93.62
2018-11-04T20:29:28.176Z,93.69
2018-11-04T20:32:02.364Z,93.18
2018-11-04T20:34:33.632Z,93.28
2018-11-04T20:37:01.820Z,93.18
2018-11-04T20:39:34.865Z,93.50
2018-11-04T20:42:03.471Z,93.45
2018-11-04T20:44:33.948Z,93.52
2018-11-04T20:47:03.286Z,93.34
2018-11-04T20:49:36.843Z,93.69
2018-11-04T20:52:06.570Z,93.72
2018-11-04T20:54:35.710Z,93.56
2018-11-04T20:57:09.903Z,93.56
2018-11-04T20:59:40.612Z,93.59
2018-11-04T21:02:08.530Z,93.74
2018-11-04T21:04:36.302Z,93.65
2018-11-04T21:07:03.934Z,93.68
2018-11-04T21:09:31.690Z,93.71
2018-11-04T21:11:59.708Z,93.42
2018-11-04T21:14:27.241Z,93.25
2018-11-04T21:16:55.015Z,93.67
2018-11-04T21:19:22.601Z,93.69
2018-11-04T21:21:50.143Z,93.53
2018-11-04T21:24:17.438Z,92.77
2018-11-04T21:26:45.070Z,92.18
2018-11-04T21:29:12.519Z,91.46
2018-11-04T21:31:39.673Z,90.44
2018-11-04T21:34:07.016Z,89.61
2018-11-04T21:36:34.407Z,90.15
2018-11-04T21:39:01.867Z,90.22
2018-11-04T21:41:29.326Z,90.07
2018-11-04T21:43:56.854Z,90.68
2018-11-04T21:46:24.020Z,90.83
2018-11-04T21:48:51.915Z,90.46
2018-11-04T21:51:19.255Z,89.97
2018-11-04T21:53:46.599Z,90.05
2018-11-04T21:56:14.031Z,90.03
2018-11-04T21:58:41.300Z,89.87
2018-11-04T22:01:08.641Z,89.61
2018-11-04T22:03:35.962Z,89.44
2018-11-04T22:06:03.426Z,88.89
2018-11-04T22:08:31.328Z,89.08
2018-11-04T22:10:59.151Z,89.28
2018-11-04T22:13:26.443Z,89.40
2018-11-04T22:15:53.709Z,88.60
2018-11-04T22:18:20.979Z,88.78
2018-11-04T22:20:48.261Z,88.91
2018-11-04T22:23:15.495Z,88.72
2018-11-04T22:25:42.760Z,88.82
2018-11-04T22:28:10.395Z,88.47
2018-11-04T22:30:37.735Z,88.96
2018-11-04T22:33:05.006Z,88.47
2018-11-04T22:35:32.264Z,88.59
2018-11-04T22:37:59.505Z,88.84
2018-11-04T22:40:26.809Z,88.64
2018-11-04T22:42:54.101Z,88.54
2018-11-04T22:45:21.372Z,88.35
2018-11-04T22:47:48.651Z,88.64
2018-11-04T22:50:16.064Z,88.84
2018-11-04T22:52:43.808Z,88.75
2018-11-04T22:55:11.981Z,88.71
2018-11-04T22:57:39.248Z,88.54
2018-11-04T23:00:13.040Z,89.20
2018-11-04T23:02:40.296Z,88.87
2018-11-04T23:05:13.349Z,88.95
2018-11-04T23:07:40.623Z,89.17
2018-11-04T23:10:08.029Z,89.29
2018-11-04T23:12:35.259Z,89.30
2018-11-04T23:15:02.538Z,89.18
2018-11-04T23:17:29.808Z,89.42
2018-11-04T23:19:57.144Z,89.37
2018-11-04T23:22:24.396Z,88.99
2018-11-04T23:24:51.747Z,89.10
2018-11-04T23:27:19.066Z,89.54
2018-11-04T23:29:46.373Z,89.12
2018-11-04T23:32:13.678Z,89.42
2018-11-04T23:34:40.997Z,89.52
2018-11-04T23:37:09.057Z,89.44
2018-11-04T23:39:36.355Z,89.12
2018-11-04T23:42:03.822Z,89.67
2018-11-04T23:44:31.133Z,89.41
2018-11-04T23:46:58.399Z,89.47
2018-11-04T23:49:25.716Z,89.81
2018-11-04T23:51:53.018Z,89.67
2018-11-04T23:54:20.270Z,89.85
2018-11-04T23:56:47.583Z,89.84
2018-11-04T23:59:14.872Z,90.15
